Portada
METAR-TAF:

METAR-TAF

Aeroports :

Aeroport Internacional de Kansai

Kansai, Japó

latitud: 34-25N, longitud: 135-15E, altitud: 5 m

Observació

L'informe es va fer fa 17 minuts, a les 15:00 UTC
Vent 4 kt del Sud/Sud-Est
Temperatura 9°C
Humitat 71%
Pressió 1025 hPa
Visibilitat 10 km o més

METAR: RJBB 131500Z AUTO 15004KT 9999 NSC 09/04 Q1025 NOSIG

Hora: 00:17 (15:17 UTC)

Pronòstic

L'informe es va fer fa 2 hores i 6 minuts, a les 13:11 UTC
Pronòstic vàlid del 13 a les 13 UTC al 14 a les 18 UTC
Vent 4 kt del Est/Sud-Est
Visibilitat 10 km o més
Escasses núvols a una alçada de 3000 ft
Evolucionant progressivament
l' 13 a les 22 UTC al 14 a les 00 UTC
Vent 8 kt del Oest/Sud-Oest
Evolucionant progressivament
l' 14 a les 03 UTC al 14 a les 06 UTC
Vent 18 kt del Oest
Evolucionant progressivament
l' 14 a les 09 UTC al 14 a les 12 UTC
Vent 19 kt del Nord

TAF: RJBB 131311Z 1313/1418 12004KT 9999 FEW030 BECMG 1322/1400 25008KT BECMG 1403/1406 28018KT BECMG 1409/1412 01019KT

Observacions i pronòstics meteorològics de més de 4000 aeroports (METAR i TAF).

Les estacions disponibles són els punts grocs i vermells al mapa.

Posi el ratolí al punt desitjat per veure el nom de l'estació.

Feu clic per veure les observacions i els pronòstics meteorològics.

Per canviar el mapa: feu clic els botons verds amb una creu de color negre per apropar; al botó verd amb un guió per allunyar la imatge; o en les fletxes verdes per a mapes adjacents.


METAR-TAF: